Accueil
METAR-TAF:

METAR-TAF

Aéroports :

Anatom, Vanuatu

latitude: 20-14-57S, longitude: 169-46-17E, altitude: 2 m

Observation

Le bulletin a été fait il y a 41 minutes, à 09:00 UTC
Vent 9 kt de sud-est
Température 28°C
Humidité 79%
Pression 1008 hPa
Visibilité 10 km ou plus
Nuages épars à une hauteur de 2500 ft

METAR: NVVA 240900Z 13009KT 9999 SCT025 28/24 Q1008 RMK NIL

Heure: 20:41 (09:41 UTC)

Prévision

Le bulletin a été fait il y a 5 heures et 11 minutes, à 04:30 UTC
Prévision valable du 24 à 06 UTC au 25 à 06 UTC
Vent 12 kt de sud-est
Visibilité: 8000 m
Nuages épars à une hauteur de 2000 ft
Nuages fragmentés à une hauteur de 1800 ft
averses de pluie

TAF: NVVA 240430Z 2406/2506 13012KT 9999 SCT020 INTER 2406/2412 8000 SHRA BKN018

Observations et prévisions météorologiques de plus de 4000 aéroports (messages METAR et TAF).

Les stations disponibles sont représentées par des disques jaunes et rouges sur la carte.

Passer la souris dessus pour voir le nom de la station.

Cliquer dessus pour voir les observations et prévisions météorologiques.

Pour changer de carte: cliquez sur les boutons verts avec une croix noire pour zoomer, sur le bouton vert avec un tiret pour effectuer un zoom arrière, ou sur les flèches vertes pour les cartes adjacentes.


METAR-TAF: